createdAt,value
2018-06-08T00:01:06.448Z,7.57
2018-06-08T00:03:35.754Z,11.00
2018-06-08T00:06:04.531Z,7.83
2018-06-08T00:08:33.356Z,9.43
2018-06-08T00:11:02.295Z,9.30
2018-06-08T00:13:31.499Z,9.43
2018-06-08T00:16:00.290Z,8.73
2018-06-08T00:18:29.346Z,8.77
2018-06-08T00:20:58.154Z,8.20
2018-06-08T00:23:26.972Z,9.30
2018-06-08T00:25:56.067Z,8.00
2018-06-08T00:28:24.819Z,5.77
2018-06-08T00:30:53.564Z,9.37
2018-06-08T00:33:22.744Z,8.13
2018-06-08T00:35:51.487Z,9.60
2018-06-08T00:38:20.057Z,8.87
2018-06-08T00:40:48.929Z,11.60
2018-06-08T00:43:17.671Z,8.00
2018-06-08T00:45:46.453Z,8.67
2018-06-08T00:48:15.583Z,6.83
2018-06-08T00:50:44.318Z,6.93
2018-06-08T00:53:12.897Z,8.93
2018-06-08T00:55:41.793Z,8.73
2018-06-08T00:58:10.702Z,11.23
2018-06-08T01:00:39.447Z,6.93
2018-06-08T01:03:09.039Z,7.43
2018-06-08T01:05:37.788Z,7.10
2018-06-08T01:08:06.540Z,7.07
2018-06-08T01:10:35.642Z,8.20
2018-06-08T01:13:04.536Z,9.77
2018-06-08T01:15:33.337Z,6.77
2018-06-08T01:18:02.386Z,7.30
2018-06-08T01:20:31.140Z,7.63
2018-06-08T01:22:59.931Z,8.40
2018-06-08T01:25:28.967Z,8.27
2018-06-08T01:27:57.703Z,7.33
2018-06-08T01:30:26.476Z,8.30
2018-06-08T01:32:55.528Z,9.70
2018-06-08T01:35:24.473Z,8.77
2018-06-08T01:37:53.050Z,10.23
2018-06-08T01:40:22.420Z,11.53
2018-06-08T01:42:51.470Z,8.57
2018-06-08T01:45:26.356Z,6.97
2018-06-08T01:47:55.247Z,6.90
2018-06-08T01:50:24.232Z,7.80
2018-06-08T01:52:53.335Z,7.93
2018-06-08T01:55:22.072Z,9.93
2018-06-08T01:57:50.629Z,8.43
2018-06-08T02:00:19.899Z,8.83
2018-06-08T02:02:48.983Z,9.23
2018-06-08T02:05:17.727Z,8.37
2018-06-08T02:07:46.602Z,10.17
2018-06-08T02:10:15.349Z,13.00
2018-06-08T02:12:44.354Z,10.03
2018-06-08T02:15:13.357Z,9.47
2018-06-08T02:17:42.088Z,10.97
2018-06-08T02:20:10.684Z,10.87
2018-06-08T02:22:39.714Z,10.37
2018-06-08T02:25:08.368Z,9.70
2018-06-08T02:27:37.117Z,9.57
2018-06-08T02:30:06.300Z,11.93
2018-06-08T02:32:35.056Z,8.70
2018-06-08T02:35:03.918Z,9.70
2018-06-08T02:37:33.079Z,9.53
2018-06-08T02:40:01.877Z,11.33
2018-06-08T02:42:30.629Z,11.60
2018-06-08T02:44:59.752Z,11.33
2018-06-08T02:47:28.506Z,10.67
2018-06-08T02:49:57.307Z,11.17
2018-06-08T02:52:26.428Z,10.23
2018-06-08T02:54:55.204Z,11.23
2018-06-08T02:57:23.942Z,12.63
2018-06-08T02:59:52.821Z,10.03
2018-06-08T03:02:21.731Z,8.17
2018-06-08T03:04:50.304Z,11.23
2018-06-08T03:07:19.356Z,13.20
2018-06-08T03:09:48.079Z,11.63
2018-06-08T03:12:16.845Z,11.07
2018-06-08T03:14:46.332Z,13.67
2018-06-08T03:17:15.075Z,10.27
2018-06-08T03:19:43.823Z,10.63
2018-06-08T03:22:12.931Z,10.23
2018-06-08T03:24:41.700Z,12.60
2018-06-08T03:27:10.493Z,9.80
2018-06-08T03:29:39.568Z,10.70
2018-06-08T03:32:08.335Z,8.83
2018-06-08T03:34:36.926Z,12.23
2018-06-08T03:37:05.876Z,11.20
2018-06-08T03:39:34.672Z,11.20
2018-06-08T03:42:03.412Z,11.87
2018-06-08T03:44:32.856Z,14.97
2018-06-08T03:47:01.609Z,11.00
2018-06-08T03:49:30.394Z,12.23
2018-06-08T03:51:59.428Z,9.27
2018-06-08T03:54:28.171Z,13.07
2018-06-08T03:56:56.956Z,12.20
2018-06-08T03:59:25.894Z,9.70
2018-06-08T04:01:54.632Z,11.43
2018-06-08T04:04:23.479Z,10.80
2018-06-08T04:06:52.578Z,11.97
2018-06-08T04:09:21.320Z,10.80
2018-06-08T04:11:50.318Z,13.50
2018-06-08T04:14:19.351Z,9.50
2018-06-08T04:16:48.010Z,10.53
2018-06-08T04:19:17.088Z,11.17
2018-06-08T04:21:46.240Z,9.87
2018-06-08T04:24:15.007Z,12.23
2018-06-08T04:26:44.060Z,9.63
2018-06-08T04:29:13.220Z,12.67
2018-06-08T04:31:41.974Z,9.50
2018-06-08T04:34:10.832Z,10.10
2018-06-08T04:36:39.926Z,10.20
2018-06-08T04:39:09.279Z,11.57
2018-06-08T04:41:38.057Z,9.40
2018-06-08T04:44:07.112Z,9.57
2018-06-08T04:46:35.868Z,9.27
2018-06-08T04:49:04.599Z,8.07
2018-06-08T04:51:33.718Z,12.10
2018-06-08T04:54:02.539Z,11.40
2018-06-08T04:56:31.302Z,12.63
2018-06-08T04:59:00.436Z,9.47
2018-06-08T05:01:29.179Z,14.03
2018-06-08T05:03:57.928Z,9.57
2018-06-08T05:06:27.376Z,8.20
2018-06-08T05:08:56.133Z,9.60
2018-06-08T05:11:24.897Z,10.43
2018-06-08T05:13:53.680Z,8.73
2018-06-08T05:16:22.443Z,8.43
2018-06-08T05:18:51.622Z,10.67
2018-06-08T05:21:20.396Z,12.03
2018-06-08T05:23:48.981Z,9.53
2018-06-08T05:26:18.204Z,7.97
2018-06-08T05:28:46.949Z,7.53
2018-06-08T05:31:15.772Z,9.57
2018-06-08T05:33:44.920Z,8.97
2018-06-08T05:36:13.679Z,8.20
2018-06-08T05:38:42.694Z,6.17
2018-06-08T05:41:11.808Z,8.90
2018-06-08T05:43:40.599Z,11.77
2018-06-08T05:46:09.351Z,11.63
2018-06-08T05:48:38.480Z,11.17
2018-06-08T05:51:07.232Z,9.37
2018-06-08T05:53:35.982Z,7.60
2018-06-08T05:56:05.262Z,12.00
2018-06-08T05:58:33.992Z,12.33
2018-06-08T06:01:02.612Z,11.77
2018-06-08T06:03:31.744Z,10.33
2018-06-08T06:06:00.483Z,11.00
2018-06-08T06:08:29.307Z,10.93
2018-06-08T06:10:58.417Z,8.93
2018-06-08T06:13:27.189Z,8.83
2018-06-08T06:15:55.928Z,7.60
2018-06-08T06:18:24.789Z,7.70
2018-06-08T06:20:53.619Z,8.43
2018-06-08T06:23:22.205Z,11.20
2018-06-08T06:25:51.349Z,10.73
2018-06-08T06:28:20.098Z,9.50
2018-06-08T06:30:49.401Z,10.93
2018-06-08T06:33:18.540Z,10.73
2018-06-08T06:35:47.291Z,8.87
2018-06-08T06:38:16.109Z,9.37
2018-06-08T06:40:45.066Z,9.37
2018-06-08T06:43:14.075Z,6.57
2018-06-08T06:45:43.250Z,9.10
2018-06-08T06:48:12.139Z,8.77
2018-06-08T06:50:40.739Z,8.50
2018-06-08T06:53:09.556Z,8.23
2018-06-08T06:55:38.671Z,9.47
2018-06-08T06:58:07.533Z,8.47
2018-06-08T07:00:36.264Z,10.50
2018-06-08T07:03:05.350Z,8.77
2018-06-08T07:05:34.099Z,7.90
2018-06-08T07:08:02.846Z,7.03
2018-06-08T07:10:31.964Z,6.87
2018-06-08T07:13:00.571Z,11.33
2018-06-08T07:15:29.347Z,7.43
2018-06-08T07:17:58.294Z,8.87
2018-06-08T07:20:27.039Z,7.83
2018-06-08T07:22:55.948Z,7.40
2018-06-08T07:25:24.762Z,7.33
2018-06-08T07:27:53.771Z,7.17
2018-06-08T07:30:22.849Z,7.83
2018-06-08T07:32:51.629Z,7.80
2018-06-08T07:35:20.456Z,8.80
2018-06-08T07:37:49.607Z,6.00
2018-06-08T07:40:18.493Z,5.90
2018-06-08T07:42:47.244Z,6.37
2018-06-08T07:45:15.878Z,8.57
2018-06-08T07:47:45.268Z,6.00
2018-06-08T07:50:14.286Z,7.73
2018-06-08T07:52:43.407Z,5.93
2018-06-08T07:55:12.487Z,8.50
2018-06-08T07:57:41.238Z,6.00
2018-06-08T08:00:10.132Z,4.07
2018-06-08T08:02:39.213Z,5.57
2018-06-08T08:05:07.805Z,4.90
2018-06-08T08:07:36.560Z,5.60
2018-06-08T08:10:05.740Z,7.20
2018-06-08T08:12:34.367Z,4.67
2018-06-08T08:15:03.240Z,9.30
2018-06-08T08:17:32.355Z,5.50
2018-06-08T08:20:00.958Z,7.87
2018-06-08T08:22:29.984Z,5.20
2018-06-08T08:24:58.990Z,9.10
2018-06-08T08:27:27.744Z,4.63
2018-06-08T08:29:56.516Z,6.17
2018-06-08T08:32:25.799Z,7.70
2018-06-08T08:34:54.677Z,6.53
2018-06-08T08:37:23.759Z,6.10
2018-06-08T08:39:52.852Z,5.90
2018-06-08T08:42:21.864Z,6.60
2018-06-08T08:44:50.712Z,6.73
2018-06-08T08:47:19.843Z,6.13
2018-06-08T08:49:48.683Z,5.27
2018-06-08T08:52:17.728Z,6.07
2018-06-08T08:54:47.171Z,5.60
2018-06-08T08:57:15.790Z,6.97
2018-06-08T08:59:44.570Z,6.77
2018-06-08T09:02:13.903Z,8.27
2018-06-08T09:04:42.917Z,7.07
2018-06-08T09:07:11.704Z,9.80
2018-06-08T09:09:40.788Z,10.33
2018-06-08T09:12:09.736Z,5.90
2018-06-08T09:14:38.587Z,7.30
2018-06-08T09:17:07.565Z,7.10
2018-06-08T09:19:36.405Z,5.43
2018-06-08T09:22:05.206Z,7.67
2018-06-08T09:24:34.345Z,7.20
2018-06-08T09:27:03.404Z,7.13
2018-06-08T09:29:32.168Z,6.53
2018-06-08T09:32:01.219Z,7.70
2018-06-08T09:34:29.957Z,6.37
2018-06-08T09:36:58.766Z,6.67
2018-06-08T09:39:27.895Z,6.90
2018-06-08T09:41:56.936Z,9.60
2018-06-08T09:44:25.953Z,7.27
2018-06-08T09:46:55.090Z,7.60
2018-06-08T09:49:24.080Z,6.73
2018-06-08T09:51:52.695Z,7.57
2018-06-08T09:54:21.759Z,8.07
2018-06-08T09:56:50.518Z,6.10
2018-06-08T09:59:19.251Z,8.73
2018-06-08T10:01:48.632Z,8.73
2018-06-08T10:04:17.303Z,5.87
2018-06-08T10:06:46.040Z,7.70
2018-06-08T10:09:15.005Z,8.80
2018-06-08T10:11:43.748Z,5.97
2018-06-08T10:14:12.455Z,5.27
2018-06-08T10:16:41.507Z,8.40
2018-06-08T10:19:10.335Z,6.10
2018-06-08T10:21:39.120Z,7.33
2018-06-08T10:24:08.032Z,5.17
2018-06-08T10:26:36.779Z,6.27
2018-06-08T10:29:05.598Z,7.47
2018-06-08T10:31:34.578Z,6.17
2018-06-08T10:34:03.382Z,7.60
2018-06-08T10:36:32.206Z,8.27
2018-06-08T10:39:01.306Z,7.00
2018-06-08T10:41:30.166Z,7.87
2018-06-08T10:43:58.900Z,6.43
2018-06-08T10:46:27.936Z,6.40
2018-06-08T10:48:56.903Z,6.10
2018-06-08T10:51:25.659Z,5.47
2018-06-08T10:53:54.859Z,9.23
2018-06-08T10:56:23.831Z,7.47
2018-06-08T10:58:52.588Z,5.27
2018-06-08T11:01:21.640Z,4.73
2018-06-08T11:03:50.367Z,5.00
2018-06-08T11:06:19.168Z,5.30
2018-06-08T11:08:47.946Z,7.13
2018-06-08T11:11:16.614Z,4.43
2018-06-08T11:13:45.657Z,5.60
2018-06-08T11:16:15.030Z,5.50
2018-06-08T11:18:43.816Z,5.57
2018-06-08T11:21:12.564Z,5.00
2018-06-08T11:23:41.771Z,6.20
2018-06-08T11:26:10.509Z,5.73
2018-06-08T11:28:39.332Z,4.93
2018-06-08T11:31:08.446Z,6.93
2018-06-08T11:33:37.179Z,7.20
2018-06-08T11:36:05.755Z,7.03
2018-06-08T11:38:34.775Z,3.97
2018-06-08T11:41:03.556Z,6.20
2018-06-08T11:43:32.356Z,4.20
2018-06-08T11:46:01.497Z,3.87
2018-06-08T11:48:30.247Z,4.87
2018-06-08T11:50:58.997Z,4.87
2018-06-08T11:53:28.066Z,3.90
2018-06-08T11:55:56.703Z,4.13
2018-06-08T11:58:25.440Z,4.87
2018-06-08T12:00:54.448Z,4.40
2018-06-08T12:03:23.193Z,4.07
2018-06-08T12:05:52.257Z,4.73
2018-06-08T12:08:21.335Z,6.00
2018-06-08T12:10:49.951Z,3.50
2018-06-08T12:13:18.687Z,4.37
2018-06-08T12:15:47.788Z,4.10
2018-06-08T12:18:16.508Z,4.20
2018-06-08T12:20:45.296Z,4.40
2018-06-08T12:23:14.355Z,4.17
2018-06-08T12:25:43.104Z,6.30
2018-06-08T12:28:11.852Z,4.13
2018-06-08T12:30:40.974Z,4.57
2018-06-08T12:33:10.024Z,9.37
2018-06-08T12:35:38.768Z,3.63
2018-06-08T12:38:07.811Z,4.40
2018-06-08T12:40:36.594Z,5.33
2018-06-08T12:43:05.355Z,3.77
2018-06-08T12:45:40.552Z,4.37
2018-06-08T12:48:09.297Z,4.53
2018-06-08T12:50:38.055Z,3.60
2018-06-08T12:53:07.002Z,5.63
2018-06-08T12:55:36.003Z,4.63
2018-06-08T12:58:04.783Z,4.20
2018-06-08T13:00:33.834Z,4.07
2018-06-08T13:03:02.415Z,4.17
2018-06-08T13:05:31.002Z,8.97
2018-06-08T13:07:59.979Z,3.47
2018-06-08T13:10:28.566Z,3.40
2018-06-08T13:12:57.297Z,3.57
2018-06-08T13:15:26.420Z,4.90
2018-06-08T13:17:55.492Z,3.83
2018-06-08T13:20:24.306Z,3.40
2018-06-08T13:22:53.713Z,3.57
2018-06-08T13:25:22.454Z,4.27
2018-06-08T13:27:51.203Z,5.23
2018-06-08T13:30:20.574Z,5.37
2018-06-08T13:32:49.376Z,3.27
2018-06-08T13:35:18.588Z,5.37
2018-06-08T13:37:47.771Z,4.53
2018-06-08T13:40:16.515Z,4.43
2018-06-08T13:42:45.118Z,3.77
2018-06-08T13:45:20.294Z,4.57
2018-06-08T13:47:49.039Z,6.13
2018-06-08T13:50:17.783Z,4.20
2018-06-08T13:52:46.903Z,5.13
2018-06-08T13:55:15.703Z,3.77
2018-06-08T13:57:44.292Z,4.20
2018-06-08T14:00:13.175Z,5.63
2018-06-08T14:02:41.761Z,6.03
2018-06-08T14:05:10.337Z,3.13
2018-06-08T14:07:39.435Z,5.03
2018-06-08T14:10:08.188Z,4.47
2018-06-08T14:12:37.178Z,8.07
2018-06-08T14:15:06.093Z,5.00
2018-06-08T14:17:34.839Z,4.23
2018-06-08T14:20:03.737Z,3.40
2018-06-08T14:22:32.852Z,4.23
2018-06-08T14:25:01.611Z,3.27
2018-06-08T14:27:30.743Z,3.60
2018-06-08T14:29:59.841Z,4.80
2018-06-08T14:32:28.626Z,3.50
2018-06-08T14:35:00.283Z,4.43
2018-06-08T14:37:29.092Z,3.27
2018-06-08T14:39:57.821Z,3.13
2018-06-08T14:42:26.771Z,3.50
2018-06-08T14:44:55.563Z,2.73
2018-06-08T14:47:24.604Z,3.57
2018-06-08T14:49:53.695Z,2.80
2018-06-08T14:52:22.523Z,3.57
2018-06-08T14:54:51.260Z,5.77
2018-06-08T14:57:20.516Z,5.53
2018-06-08T14:59:49.258Z,4.47
2018-06-08T15:02:23.218Z,4.97
2018-06-08T15:04:51.947Z,5.40
2018-06-08T15:07:20.791Z,5.03
2018-06-08T15:09:50.200Z,7.20
2018-06-08T15:12:19.140Z,5.03
2018-06-08T15:14:47.717Z,3.67
2018-06-08T15:17:16.800Z,4.03
2018-06-08T15:19:45.583Z,4.50
2018-06-08T15:22:14.366Z,10.97
2018-06-08T15:24:43.448Z,5.73
2018-06-08T15:27:12.199Z,3.27
2018-06-08T15:29:40.935Z,5.50
2018-06-08T15:32:10.025Z,7.47
2018-06-08T15:34:38.800Z,6.93
2018-06-08T15:37:07.866Z,5.67
2018-06-08T15:39:36.880Z,4.47
2018-06-08T15:42:06.144Z,5.60
2018-06-08T15:44:34.938Z,4.57
2018-06-08T15:47:03.987Z,4.37
2018-06-08T15:49:33.047Z,9.67
2018-06-08T15:52:01.816Z,2.97
2018-06-08T15:54:30.666Z,3.63
2018-06-08T15:56:59.464Z,4.50
2018-06-08T15:59:28.209Z,4.67
2018-06-08T16:01:57.347Z,3.83
2018-06-08T16:04:26.091Z,4.03
2018-06-08T16:06:54.843Z,6.23
2018-06-08T16:09:24.019Z,3.50
2018-06-08T16:11:52.761Z,3.23
2018-06-08T16:14:21.509Z,3.13
2018-06-08T16:16:50.828Z,4.10
2018-06-08T16:19:19.410Z,2.70
2018-06-08T16:21:48.220Z,3.20
2018-06-08T16:24:17.091Z,5.00
2018-06-08T16:26:45.846Z,3.03
2018-06-08T16:29:14.573Z,9.07
2018-06-08T16:31:43.882Z,5.13
2018-06-08T16:34:12.677Z,3.90
2018-06-08T16:36:41.241Z,3.50
2018-06-08T16:39:10.411Z,5.40
2018-06-08T16:41:39.180Z,3.17
2018-06-08T16:44:08.005Z,2.80
2018-06-08T16:46:37.199Z,5.00
2018-06-08T16:49:05.957Z,6.47
2018-06-08T16:51:34.712Z,3.83
2018-06-08T16:54:03.665Z,4.17
2018-06-08T16:56:32.410Z,3.63
2018-06-08T16:59:01.216Z,4.73
2018-06-08T17:01:30.520Z,3.43
2018-06-08T17:03:59.266Z,4.73
2018-06-08T17:06:28.032Z,4.63
2018-06-08T17:08:57.120Z,6.97
2018-06-08T17:11:26.122Z,4.23
2018-06-08T17:13:54.876Z,7.57
2018-06-08T17:16:23.894Z,7.07
2018-06-08T17:18:52.616Z,6.50
2018-06-08T17:21:21.627Z,9.50
2018-06-08T17:23:50.492Z,5.00
2018-06-08T17:26:19.511Z,5.90
2018-06-08T17:28:48.466Z,5.03
2018-06-08T17:31:17.220Z,4.40
2018-06-08T17:33:45.974Z,4.20
2018-06-08T17:36:15.036Z,5.23
2018-06-08T17:38:43.784Z,4.27
2018-06-08T17:41:12.527Z,2.70
2018-06-08T17:43:41.858Z,5.93
2018-06-08T17:46:10.526Z,5.60
2018-06-08T17:48:39.323Z,3.90
2018-06-08T17:51:08.389Z,3.47
2018-06-08T17:53:37.148Z,4.90
2018-06-08T17:56:05.936Z,5.57
2018-06-08T17:58:35.352Z,2.70
2018-06-08T18:01:04.168Z,8.60
2018-06-08T18:03:32.907Z,6.07
2018-06-08T18:06:02.346Z,6.10
2018-06-08T18:08:31.082Z,4.27
2018-06-08T18:10:59.652Z,4.77
2018-06-08T18:13:28.771Z,2.60
2018-06-08T18:15:57.516Z,2.63
2018-06-08T18:18:26.287Z,2.60
2018-06-08T18:20:56.079Z,3.00
2018-06-08T18:23:24.840Z,3.03
2018-06-08T18:25:53.619Z,2.83
2018-06-08T18:28:22.630Z,3.47
2018-06-08T18:30:51.209Z,2.47
2018-06-08T18:33:19.848Z,2.83
2018-06-08T18:35:48.958Z,2.77
2018-06-08T18:38:17.978Z,4.10
2018-06-08T18:40:46.665Z,3.70
2018-06-08T18:43:15.731Z,3.47
2018-06-08T18:45:47.783Z,1.90
2018-06-08T18:48:17.158Z,4.67
2018-06-08T18:50:46.308Z,3.70
2018-06-08T18:53:15.471Z,4.53
2018-06-08T18:55:44.511Z,4.20
2018-06-08T18:58:13.840Z,2.60
2018-06-08T19:00:42.672Z,3.30
2018-06-08T19:03:11.788Z,3.53
2018-06-08T19:05:40.544Z,5.20
2018-06-08T19:08:09.284Z,2.30
2018-06-08T19:10:38.469Z,4.40
2018-06-08T19:13:07.196Z,4.70
2018-06-08T19:15:35.996Z,3.70
2018-06-08T19:18:05.507Z,4.93
2018-06-08T19:20:34.247Z,3.60
2018-06-08T19:23:03.008Z,4.90
2018-06-08T19:25:32.124Z,6.57
2018-06-08T19:28:00.782Z,4.03
2018-06-08T19:30:29.639Z,6.30
2018-06-08T19:32:58.530Z,9.43
2018-06-08T19:35:27.138Z,4.70
2018-06-08T19:37:55.866Z,6.27
2018-06-08T19:40:27.043Z,3.83
2018-06-08T19:42:55.952Z,4.03
2018-06-08T19:45:31.855Z,4.60
2018-06-08T19:48:00.592Z,2.90
2018-06-08T19:50:29.462Z,5.17
2018-06-08T19:52:58.539Z,3.20
2018-06-08T19:55:27.291Z,3.23
2018-06-08T19:57:56.037Z,4.10
2018-06-08T20:00:25.213Z,3.30
2018-06-08T20:02:54.690Z,5.43
2018-06-08T20:05:23.549Z,3.00
2018-06-08T20:07:52.600Z,4.63
2018-06-08T20:10:21.386Z,4.13
2018-06-08T20:12:50.217Z,5.40
2018-06-08T20:15:19.524Z,3.50
2018-06-08T20:17:48.275Z,5.20
2018-06-08T20:20:17.019Z,5.90
2018-06-08T20:22:46.063Z,4.53
2018-06-08T20:25:14.796Z,3.00
2018-06-08T20:27:43.840Z,5.40
2018-06-08T20:30:12.859Z,2.53
2018-06-08T20:32:41.620Z,2.93
2018-06-08T20:35:10.397Z,3.13
2018-06-08T20:37:39.523Z,4.10
2018-06-08T20:40:08.312Z,6.33
2018-06-08T20:42:37.059Z,4.43
2018-06-08T20:45:06.195Z,10.23
2018-06-08T20:47:34.980Z,3.20
2018-06-08T20:50:03.805Z,3.03
2018-06-08T20:52:33.070Z,3.90
2018-06-08T20:55:01.832Z,4.27
2018-06-08T20:57:30.827Z,6.37
2018-06-08T20:59:59.947Z,4.50
2018-06-08T21:02:29.004Z,2.60
2018-06-08T21:04:57.849Z,5.67
2018-06-08T21:07:27.711Z,4.33
2018-06-08T21:09:56.460Z,4.70
2018-06-08T21:12:26.032Z,4.03
2018-06-08T21:14:55.170Z,3.83
2018-06-08T21:17:24.059Z,3.27
2018-06-08T21:19:52.806Z,3.20
2018-06-08T21:22:21.859Z,7.60
2018-06-08T21:24:50.605Z,5.40
2018-06-08T21:27:19.364Z,4.80
2018-06-08T21:29:48.499Z,4.07
2018-06-08T21:32:17.230Z,5.90
2018-06-08T21:34:45.804Z,3.30
2018-06-08T21:37:14.867Z,7.07
2018-06-08T21:39:43.606Z,4.30
2018-06-08T21:42:12.824Z,5.30
2018-06-08T21:44:41.946Z,4.97
2018-06-08T21:47:10.694Z,5.57
2018-06-08T21:49:39.434Z,7.57
2018-06-08T21:52:08.524Z,6.50
2018-06-08T21:54:37.270Z,3.70
2018-06-08T21:57:06.359Z,4.60
2018-06-08T21:59:35.302Z,3.97
2018-06-08T22:02:04.242Z,6.13
2018-06-08T22:04:33.458Z,4.30
2018-06-08T22:07:02.305Z,4.27
2018-06-08T22:09:31.124Z,3.73
2018-06-08T22:12:00.284Z,6.87
2018-06-08T22:14:29.288Z,3.40
2018-06-08T22:16:58.037Z,4.37
2018-06-08T22:19:27.159Z,5.53
2018-06-08T22:21:55.932Z,6.10
2018-06-08T22:24:24.682Z,4.57
2018-06-08T22:26:53.865Z,4.47
2018-06-08T22:29:22.600Z,4.33
2018-06-08T22:31:51.731Z,4.20
2018-06-08T22:34:20.771Z,8.87
2018-06-08T22:36:49.361Z,5.77
2018-06-08T22:39:18.098Z,3.47
2018-06-08T22:41:47.083Z,5.93
2018-06-08T22:44:15.869Z,5.90
2018-06-08T22:46:44.592Z,4.13
2018-06-08T22:49:13.621Z,4.50
2018-06-08T22:51:42.813Z,5.40
2018-06-08T22:54:11.911Z,6.23
2018-06-08T22:56:41.151Z,4.43
2018-06-08T22:59:09.896Z,5.50
2018-06-08T23:01:38.675Z,5.40
2018-06-08T23:04:07.623Z,6.60
2018-06-08T23:06:36.353Z,5.40
2018-06-08T23:09:08.278Z,5.40
2018-06-08T23:11:37.635Z,5.63
2018-06-08T23:14:06.380Z,8.23
2018-06-08T23:16:35.464Z,6.33
2018-06-08T23:19:04.419Z,5.57
2018-06-08T23:21:33.205Z,7.43
2018-06-08T23:24:02.369Z,6.63
2018-06-08T23:26:31.109Z,6.67
2018-06-08T23:28:59.847Z,5.30
2018-06-08T23:31:28.904Z,4.13
2018-06-08T23:33:57.529Z,7.00
2018-06-08T23:36:26.932Z,7.60
2018-06-08T23:38:55.660Z,5.87
2018-06-08T23:41:24.387Z,4.40
2018-06-08T23:43:53.429Z,6.60
2018-06-08T23:46:22.211Z,7.77
2018-06-08T23:48:50.938Z,4.57
2018-06-08T23:51:20.060Z,6.23
2018-06-08T23:53:48.852Z,4.37
2018-06-08T23:56:17.563Z,7.77
2018-06-08T23:58:46.624Z,5.70
